createdAt,value
2022-07-29T00:01:05.101Z,100930.40
2022-07-29T00:03:32.018Z,100923.40
2022-07-29T00:05:59.354Z,100924.40
2022-07-29T00:08:27.924Z,100920.40
2022-07-29T00:10:54.728Z,100916.40
2022-07-29T00:13:32.448Z,100914.40
2022-07-29T00:16:03.670Z,100909.00
2022-07-29T00:18:33.459Z,100909.60
2022-07-29T00:21:00.660Z,100914.40
2022-07-29T00:23:27.514Z,100905.60
2022-07-29T00:25:54.589Z,100900.40
2022-07-29T00:28:21.445Z,100898.80
2022-07-29T00:30:48.237Z,100899.60
2022-07-29T00:33:15.116Z,100904.00
2022-07-29T00:35:44.847Z,100902.00
2022-07-29T00:38:19.491Z,100895.80
2022-07-29T00:40:48.354Z,100896.40
2022-07-29T00:43:16.302Z,100896.40
2022-07-29T00:45:43.917Z,100894.40
2022-07-29T00:48:11.536Z,100888.80
2022-07-29T00:50:39.369Z,100886.60
2022-07-29T00:53:10.007Z,100876.60
2022-07-29T00:55:37.027Z,100870.00
2022-07-29T00:58:04.894Z,100862.80
2022-07-29T01:00:32.445Z,100864.60
2022-07-29T01:02:59.677Z,100860.80
2022-07-29T01:05:51.052Z,100858.80
2022-07-29T01:08:18.038Z,100851.20
2022-07-29T01:10:47.663Z,100847.40
2022-07-29T01:13:17.505Z,100843.80
2022-07-29T01:15:56.539Z,100840.20
2022-07-29T01:18:45.518Z,100838.40
2022-07-29T01:21:33.735Z,100837.00
2022-07-29T01:24:25.975Z,100838.00
2022-07-29T01:27:09.068Z,100842.00
2022-07-29T01:29:44.969Z,100843.40
2022-07-29T01:32:29.136Z,100837.20
2022-07-29T01:35:17.595Z,100837.20
2022-07-29T01:37:53.133Z,100826.60
2022-07-29T01:40:41.875Z,100828.60
2022-07-29T01:43:18.342Z,100824.80
2022-07-29T01:45:54.112Z,100823.60
2022-07-29T01:48:41.256Z,100822.00
2022-07-29T01:51:34.652Z,100815.80
2022-07-29T01:54:11.949Z,100813.80
2022-07-29T01:56:41.782Z,100809.20
2022-07-29T01:59:11.396Z,100810.40
2022-07-29T02:01:43.923Z,100805.80
2022-07-29T02:04:29.064Z,100802.40
2022-07-29T02:07:03.933Z,100800.40
2022-07-29T02:09:34.341Z,100798.00
2022-07-29T02:12:04.233Z,100798.60
2022-07-29T02:14:54.029Z,100798.40
2022-07-29T02:17:28.966Z,100796.00
2022-07-29T02:20:03.459Z,100793.20
2022-07-29T02:22:34.657Z,100796.00
2022-07-29T02:25:03.765Z,100799.60
2022-07-29T02:27:35.689Z,100799.40
2022-07-29T02:30:06.090Z,100801.60
2022-07-29T02:32:36.532Z,100803.80
2022-07-29T02:35:05.452Z,100804.00
2022-07-29T02:37:33.962Z,100800.40
2022-07-29T02:40:02.643Z,100799.60
2022-07-29T02:42:32.237Z,100795.00
2022-07-29T02:44:59.329Z,100789.20
2022-07-29T02:47:41.911Z,100782.60
2022-07-29T02:50:30.002Z,100786.20
2022-07-29T02:53:12.764Z,100787.00
2022-07-29T02:55:49.881Z,100792.20
2022-07-29T02:58:30.750Z,100787.40
2022-07-29T03:01:20.929Z,100789.40
2022-07-29T03:03:52.804Z,100791.00
2022-07-29T03:06:37.372Z,100791.00
2022-07-29T03:09:12.825Z,100793.60
2022-07-29T03:11:49.404Z,100803.20
2022-07-29T03:14:21.913Z,100803.20
2022-07-29T03:16:51.088Z,100796.00
2022-07-29T03:19:19.472Z,100793.40
2022-07-29T03:21:46.619Z,100794.40
2022-07-29T03:24:27.853Z,100797.40
2022-07-29T03:26:57.606Z,100797.20
2022-07-29T03:29:25.888Z,100796.20
2022-07-29T03:32:07.277Z,100792.40
2022-07-29T03:34:37.424Z,100790.40
2022-07-29T03:37:07.066Z,100791.80
2022-07-29T03:39:41.807Z,100790.80
2022-07-29T03:42:12.972Z,100795.80
2022-07-29T03:44:43.936Z,100804.40
2022-07-29T03:47:15.994Z,100817.80
2022-07-29T03:49:45.660Z,100829.00
2022-07-29T03:52:12.465Z,100836.00
2022-07-29T03:54:40.152Z,100829.80
2022-07-29T03:57:08.789Z,100815.40
2022-07-29T03:59:36.787Z,100823.40
2022-07-29T04:02:06.548Z,100829.80
2022-07-29T04:04:37.264Z,100832.80
2022-07-29T04:07:05.038Z,100828.20
2022-07-29T04:09:32.737Z,100826.80
2022-07-29T04:12:02.928Z,100827.40
2022-07-29T04:14:33.614Z,100837.40
2022-07-29T04:17:05.158Z,100850.60
2022-07-29T04:19:33.165Z,100850.00
2022-07-29T04:22:01.669Z,100843.20
2022-07-29T04:24:29.167Z,100841.20
2022-07-29T04:26:56.452Z,100861.20
2022-07-29T04:29:23.176Z,100878.20
2022-07-29T04:31:50.056Z,100873.00
2022-07-29T04:34:17.370Z,100853.20
2022-07-29T04:36:44.335Z,100882.40
2022-07-29T04:39:11.588Z,100897.80
2022-07-29T04:41:38.378Z,100900.20
2022-07-29T04:44:07.138Z,100887.20
2022-07-29T04:46:36.206Z,100883.60
2022-07-29T04:49:04.856Z,100882.80
2022-07-29T04:51:32.324Z,100878.80
2022-07-29T04:53:59.286Z,100873.20
2022-07-29T04:56:26.247Z,100884.60
2022-07-29T04:58:53.784Z,100891.40
2022-07-29T05:01:20.997Z,100893.60
2022-07-29T05:03:48.007Z,100892.20
2022-07-29T05:06:14.841Z,100899.80
2022-07-29T05:08:42.015Z,100897.00
2022-07-29T05:11:11.302Z,100896.20
2022-07-29T05:13:46.346Z,100892.60
2022-07-29T05:16:15.305Z,100888.00
2022-07-29T05:18:43.301Z,100882.20
2022-07-29T05:21:10.483Z,100879.20
2022-07-29T05:23:37.352Z,100884.20
2022-07-29T05:26:04.229Z,100882.40
2022-07-29T05:28:36.288Z,100872.20
2022-07-29T05:31:03.609Z,100868.80
2022-07-29T05:33:36.459Z,100868.60
2022-07-29T05:36:08.472Z,100877.00
2022-07-29T05:38:37.044Z,100878.80
2022-07-29T05:41:06.139Z,100881.40
2022-07-29T05:43:33.043Z,100881.80
2022-07-29T05:46:00.397Z,100878.80
2022-07-29T05:48:27.717Z,100881.00
2022-07-29T05:50:55.401Z,100873.60
2022-07-29T05:53:22.367Z,100869.20
2022-07-29T05:55:50.383Z,100866.20
2022-07-29T05:58:17.454Z,100862.60
2022-07-29T06:00:44.885Z,100859.80
2022-07-29T06:03:11.861Z,100859.00
2022-07-29T06:05:38.708Z,100855.20
2022-07-29T06:08:08.046Z,100854.00
2022-07-29T06:10:38.709Z,100852.60
2022-07-29T06:13:05.694Z,100858.80
2022-07-29T06:15:32.992Z,100859.80
2022-07-29T06:18:01.697Z,100861.20
2022-07-29T06:20:33.127Z,100860.00
2022-07-29T06:23:00.880Z,100854.80
2022-07-29T06:25:31.769Z,100857.80
2022-07-29T06:27:58.990Z,100860.60
2022-07-29T06:30:25.881Z,100862.40
2022-07-29T06:32:52.910Z,100870.40
2022-07-29T06:35:40.900Z,100872.60
2022-07-29T06:38:13.812Z,100876.40
2022-07-29T06:41:11.160Z,100877.20
2022-07-29T06:43:51.918Z,100880.00
2022-07-29T06:46:23.158Z,100872.60
2022-07-29T06:48:51.356Z,100871.20
2022-07-29T06:51:22.565Z,100863.00
2022-07-29T06:54:00.618Z,100865.20
2022-07-29T06:56:40.317Z,100854.00
2022-07-29T06:59:09.900Z,100846.00
2022-07-29T07:01:43.763Z,100851.40
2022-07-29T07:04:12.380Z,100856.40
2022-07-29T07:06:39.898Z,100868.80
2022-07-29T07:09:07.725Z,100879.00
2022-07-29T07:11:35.062Z,100886.40
2022-07-29T07:14:03.984Z,100888.60
2022-07-29T07:16:32.669Z,100888.20
2022-07-29T07:18:59.721Z,100895.40
2022-07-29T07:21:26.555Z,100891.80
2022-07-29T07:23:57.302Z,100895.00
2022-07-29T07:26:24.544Z,100901.60
2022-07-29T07:28:51.246Z,100907.60
2022-07-29T07:31:18.505Z,100914.60
2022-07-29T07:33:45.821Z,100913.80
2022-07-29T07:36:12.673Z,100915.20
2022-07-29T07:38:39.613Z,100915.80
2022-07-29T07:41:06.615Z,100910.00
2022-07-29T07:43:33.695Z,100909.40
2022-07-29T07:46:00.548Z,100911.00
2022-07-29T07:48:27.795Z,100915.20
2022-07-29T07:50:54.644Z,100916.40
2022-07-29T07:53:22.616Z,100920.80
2022-07-29T07:58:36.402Z,100925.00
2022-07-29T08:01:04.046Z,100918.60
2022-07-29T08:03:30.914Z,100913.20
2022-07-29T08:05:58.300Z,100912.20
2022-07-29T08:08:25.194Z,100909.00
2022-07-29T08:10:56.612Z,100906.80
2022-07-29T08:13:29.282Z,100908.60
2022-07-29T08:16:01.868Z,100909.60
2022-07-29T08:18:31.744Z,100906.00
2022-07-29T08:20:59.619Z,100907.80
2022-07-29T08:23:32.881Z,100908.60
2022-07-29T08:26:14.942Z,100919.00
2022-07-29T08:28:46.837Z,100926.00
2022-07-29T08:31:15.605Z,100927.20
2022-07-29T08:33:43.922Z,100930.20
2022-07-29T08:36:11.275Z,100931.40
2022-07-29T08:38:38.093Z,100929.40
2022-07-29T08:41:04.852Z,100927.40
2022-07-29T08:43:32.967Z,100925.80
2022-07-29T08:45:59.927Z,100924.00
2022-07-29T08:48:26.732Z,100926.60
2022-07-29T08:50:58.094Z,100931.80
2022-07-29T08:53:29.079Z,100927.80
2022-07-29T08:55:57.167Z,100923.20
2022-07-29T08:58:26.016Z,100917.80
2022-07-29T09:00:56.371Z,100917.80
2022-07-29T09:03:32.953Z,100917.80
2022-07-29T09:06:00.611Z,100918.60
2022-07-29T09:08:29.229Z,100919.00
2022-07-29T09:10:59.631Z,100924.00
2022-07-29T09:13:27.255Z,100924.80
2022-07-29T09:15:55.065Z,100929.80
2022-07-29T09:18:41.012Z,100925.60
2022-07-29T09:21:32.752Z,100928.80
2022-07-29T09:24:14.565Z,100926.80
2022-07-29T09:26:46.556Z,100932.80
2022-07-29T09:29:20.128Z,100935.80
2022-07-29T09:31:53.664Z,100935.00
2022-07-29T09:34:31.324Z,100937.60
2022-07-29T09:36:59.101Z,100935.80
2022-07-29T09:39:41.178Z,100935.20
2022-07-29T09:42:08.408Z,100931.40
2022-07-29T09:44:51.644Z,100925.20
2022-07-29T09:47:22.847Z,100923.40
2022-07-29T09:49:59.295Z,100922.20
2022-07-29T09:52:31.325Z,100919.00
2022-07-29T09:55:13.780Z,100915.00
2022-07-29T09:57:46.779Z,100906.60
2022-07-29T10:00:16.656Z,100898.40
2022-07-29T10:02:45.561Z,100891.60
2022-07-29T10:05:36.762Z,100887.80
2022-07-29T10:08:04.297Z,100886.40
2022-07-29T10:10:37.689Z,100891.80
2022-07-29T10:13:15.379Z,100898.60
2022-07-29T10:15:46.994Z,100898.60
2022-07-29T10:18:18.899Z,100902.00
2022-07-29T10:20:46.104Z,100900.20
2022-07-29T10:23:13.844Z,100896.40
2022-07-29T10:25:46.007Z,100897.60
2022-07-29T10:28:16.515Z,100898.00
2022-07-29T10:30:46.605Z,100897.40
2022-07-29T10:34:03.313Z,100893.80
2022-07-29T10:36:56.157Z,100902.00
2022-07-29T10:39:54.491Z,100907.40
2022-07-29T10:42:33.242Z,100912.20
2022-07-29T10:45:04.883Z,100915.80
2022-07-29T10:47:32.363Z,100911.40
2022-07-29T10:50:07.479Z,100908.60
2022-07-29T10:52:59.592Z,100909.00
2022-07-29T10:55:33.493Z,100910.60
2022-07-29T10:58:19.142Z,100911.60
2022-07-29T11:00:53.270Z,100909.80
2022-07-29T11:03:50.351Z,100912.60
2022-07-29T11:06:26.765Z,100912.60
2022-07-29T11:09:25.768Z,100910.40
2022-07-29T11:12:25.324Z,100908.00
2022-07-29T11:14:53.380Z,100908.00
2022-07-29T11:17:20.426Z,100909.80
2022-07-29T11:19:52.108Z,100907.00
2022-07-29T11:22:37.064Z,100904.80
2022-07-29T11:25:19.040Z,100911.60
2022-07-29T11:28:22.731Z,100917.60
2022-07-29T11:30:56.108Z,100915.00
2022-07-29T11:33:56.064Z,100908.60
2022-07-29T11:36:28.299Z,100901.00
2022-07-29T11:39:36.829Z,100899.00
2022-07-29T11:42:17.649Z,100904.40
2022-07-29T11:45:40.304Z,100903.40
2022-07-29T11:48:29.521Z,100899.80
2022-07-29T11:50:49.242Z,100898.00
2022-07-29T11:53:17.304Z,100899.20
2022-07-29T11:55:51.595Z,100905.40
2022-07-29T11:58:27.209Z,100905.20
2022-07-29T12:00:55.582Z,100902.60
2022-07-29T12:03:33.490Z,100899.20
2022-07-29T12:06:03.275Z,100893.60
2022-07-29T12:08:31.755Z,100891.20
2022-07-29T12:10:58.553Z,100888.80
2022-07-29T12:13:37.246Z,100889.00
2022-07-29T12:16:05.593Z,100894.00
2022-07-29T12:18:33.191Z,100898.40
2022-07-29T12:21:05.553Z,100899.80
2022-07-29T12:23:34.885Z,100896.60
2022-07-29T12:26:07.715Z,100903.00
2022-07-29T12:28:39.994Z,100896.80
2022-07-29T12:31:44.102Z,100906.20
2022-07-29T12:34:02.696Z,100897.40
2022-07-29T12:36:29.671Z,100901.20
2022-07-29T12:38:56.669Z,100899.00
2022-07-29T12:41:23.444Z,100893.60
2022-07-29T12:43:55.553Z,100899.60
2022-07-29T12:46:22.701Z,100906.00
2022-07-29T12:48:58.445Z,100902.60
2022-07-29T12:51:34.609Z,100907.80
2022-07-29T12:54:14.600Z,100904.80
2022-07-29T12:56:45.126Z,100901.20
2022-07-29T12:59:23.630Z,100901.40
2022-07-29T13:01:53.546Z,100898.00
2022-07-29T13:04:34.498Z,100891.80
2022-07-29T13:07:08.449Z,100897.00
2022-07-29T13:09:46.546Z,100899.20
2022-07-29T13:12:14.877Z,100901.20
2022-07-29T13:14:47.746Z,100907.20
2022-07-29T13:17:21.766Z,100899.60
2022-07-29T13:19:51.504Z,100904.60
2022-07-29T13:22:23.433Z,100910.40
2022-07-29T13:24:57.500Z,100914.80
2022-07-29T13:27:28.425Z,100914.60
2022-07-29T13:29:58.573Z,100915.20
2022-07-29T13:32:28.998Z,100907.80
2022-07-29T13:35:05.359Z,100914.00
2022-07-29T13:37:35.274Z,100913.60
2022-07-29T13:40:05.281Z,100916.00
2022-07-29T13:42:33.706Z,100919.80
2022-07-29T13:45:01.927Z,100912.40
2022-07-29T13:47:32.592Z,100909.00
2022-07-29T13:50:02.551Z,100913.60
2022-07-29T13:52:29.756Z,100915.40
2022-07-29T13:54:57.450Z,100907.80
2022-07-29T13:57:24.420Z,100908.00
2022-07-29T13:59:54.314Z,100906.00
2022-07-29T14:02:25.282Z,100904.60
2022-07-29T14:04:55.434Z,100903.20
2022-07-29T14:07:23.478Z,100895.60
2022-07-29T14:09:51.076Z,100897.60
2022-07-29T14:12:18.485Z,100885.40
2022-07-29T14:14:45.353Z,100885.80
2022-07-29T14:17:15.549Z,100880.80
2022-07-29T14:19:42.952Z,100894.80
2022-07-29T14:22:09.995Z,100892.20
2022-07-29T14:24:39.270Z,100899.40
2022-07-29T14:27:08.628Z,100901.20
2022-07-29T14:29:38.042Z,100870.40
2022-07-29T14:32:11.599Z,100880.60
2022-07-29T14:34:39.673Z,100866.60
2022-07-29T14:37:07.204Z,100857.20
2022-07-29T14:39:42.791Z,100861.40
2022-07-29T14:42:12.989Z,100862.00
2022-07-29T14:44:42.532Z,100860.20
2022-07-29T14:47:09.920Z,100859.20
2022-07-29T14:49:36.772Z,100854.40
2022-07-29T14:52:04.327Z,100851.80
2022-07-29T14:54:31.172Z,100852.20
2022-07-29T14:56:58.647Z,100846.20
2022-07-29T14:59:27.361Z,100853.20
2022-07-29T15:01:55.090Z,100857.80
2022-07-29T15:04:22.063Z,100854.60
2022-07-29T15:06:49.396Z,100867.20
2022-07-29T15:09:16.551Z,100864.40
2022-07-29T15:11:43.473Z,100873.20
2022-07-29T15:14:10.795Z,100876.20
2022-07-29T15:16:43.499Z,100879.80
2022-07-29T15:19:11.664Z,100874.00
2022-07-29T15:21:47.907Z,100886.80
2022-07-29T15:24:25.703Z,100890.40
2022-07-29T15:26:52.507Z,100880.40
2022-07-29T15:29:20.871Z,100878.80
2022-07-29T15:31:47.836Z,100881.40
2022-07-29T15:34:14.811Z,100885.40
2022-07-29T15:36:52.049Z,100883.20
2022-07-29T15:39:21.424Z,100875.80
2022-07-29T15:41:48.386Z,100882.60
2022-07-29T15:44:15.221Z,100901.40
2022-07-29T15:47:01.018Z,100885.80
2022-07-29T15:49:47.666Z,100868.60
2022-07-29T15:52:26.146Z,100869.60
2022-07-29T15:54:58.014Z,100864.80
2022-07-29T15:57:25.896Z,100859.60
2022-07-29T15:59:53.353Z,100862.60
2022-07-29T16:02:20.794Z,100865.40
2022-07-29T16:04:47.795Z,100865.20
2022-07-29T16:07:15.594Z,100862.80
2022-07-29T16:09:47.060Z,100863.60
2022-07-29T16:12:18.069Z,100872.40
2022-07-29T16:14:44.962Z,100871.80
2022-07-29T16:17:14.708Z,100874.00
2022-07-29T16:19:43.629Z,100870.40
2022-07-29T16:22:12.445Z,100870.80
2022-07-29T16:24:40.114Z,100869.20
2022-07-29T16:27:07.829Z,100871.80
2022-07-29T16:29:37.251Z,100874.80
2022-07-29T16:32:06.390Z,100876.00
2022-07-29T16:34:33.814Z,100874.20
2022-07-29T16:37:00.928Z,100875.00
2022-07-29T16:39:27.973Z,100876.80
2022-07-29T16:41:58.286Z,100873.40
2022-07-29T16:44:27.195Z,100874.00
2022-07-29T16:46:56.075Z,100885.40
2022-07-29T16:49:25.019Z,100884.60
2022-07-29T16:51:51.869Z,100881.40
2022-07-29T16:54:18.724Z,100879.20
2022-07-29T16:56:46.064Z,100879.60
2022-07-29T16:59:13.817Z,100887.60
2022-07-29T17:01:40.751Z,100902.20
2022-07-29T17:04:07.771Z,100913.20
2022-07-29T17:06:39.146Z,100899.00
2022-07-29T17:09:08.823Z,100893.80
2022-07-29T17:11:53.087Z,100897.00
2022-07-29T17:14:29.235Z,100916.00
2022-07-29T17:17:03.230Z,100931.60
2022-07-29T17:19:34.046Z,100920.20
2022-07-29T17:22:17.223Z,100910.00
2022-07-29T17:24:47.244Z,100905.20
2022-07-29T17:27:15.098Z,100909.60
2022-07-29T17:29:42.024Z,100910.80
2022-07-29T17:32:10.607Z,100910.40
2022-07-29T17:34:40.166Z,100905.00
2022-07-29T17:37:09.604Z,100911.60
2022-07-29T17:39:40.788Z,100909.80
2022-07-29T17:42:11.977Z,100917.40
2022-07-29T17:44:40.396Z,100927.00
2022-07-29T17:47:16.065Z,100930.60
2022-07-29T17:49:45.109Z,100930.20
2022-07-29T17:52:12.134Z,100929.00
2022-07-29T17:54:39.016Z,100950.40
2022-07-29T17:57:05.816Z,100958.80
2022-07-29T17:59:32.650Z,100964.20
2022-07-29T18:01:59.460Z,100968.60
2022-07-29T18:04:26.522Z,100965.60
2022-07-29T18:06:53.940Z,100970.40
2022-07-29T18:09:20.673Z,100969.80
2022-07-29T18:11:48.883Z,100969.40
2022-07-29T18:14:17.093Z,100968.80
2022-07-29T18:16:43.977Z,100975.40
2022-07-29T18:19:10.912Z,100971.20
2022-07-29T18:21:51.302Z,100975.40
2022-07-29T18:24:25.686Z,100972.60
2022-07-29T18:26:53.212Z,100969.20
2022-07-29T18:29:19.921Z,100967.80
2022-07-29T18:31:46.754Z,100961.60
2022-07-29T18:34:13.663Z,100964.60
2022-07-29T18:36:40.472Z,100967.00
2022-07-29T18:39:07.293Z,100963.00
2022-07-29T18:41:35.706Z,100963.40
2022-07-29T18:44:17.826Z,100963.80
2022-07-29T18:46:44.846Z,100962.80
2022-07-29T18:49:15.120Z,100958.40
2022-07-29T18:51:42.013Z,100961.40
2022-07-29T18:54:10.140Z,100963.20
2022-07-29T18:56:37.467Z,100968.80
2022-07-29T18:59:05.208Z,100968.00
2022-07-29T19:01:32.382Z,100964.40
2022-07-29T19:04:00.257Z,100963.80
2022-07-29T19:06:27.168Z,100964.60
2022-07-29T19:08:54.120Z,100968.60
2022-07-29T19:11:20.979Z,100969.00
2022-07-29T19:13:47.829Z,100966.60
2022-07-29T19:16:15.899Z,100972.20
2022-07-29T19:18:43.634Z,100970.40
2022-07-29T19:21:11.105Z,100965.40
2022-07-29T19:24:00.684Z,100968.20
2022-07-29T19:26:26.228Z,100968.80
2022-07-29T19:28:53.746Z,100973.00
2022-07-29T19:31:20.647Z,100973.40
2022-07-29T19:33:47.476Z,100973.20
2022-07-29T19:36:14.247Z,100979.20
2022-07-29T19:38:41.495Z,100984.80
2022-07-29T19:41:08.651Z,100976.20
2022-07-29T19:43:51.173Z,100979.60
2022-07-29T19:46:22.028Z,100984.60
2022-07-29T19:48:50.078Z,100987.00
2022-07-29T19:51:17.571Z,100991.40
2022-07-29T19:53:44.611Z,100999.40
2022-07-29T19:56:11.564Z,100990.60
2022-07-29T19:58:40.531Z,100994.60
2022-07-29T20:01:10.497Z,100997.20
2022-07-29T20:03:44.889Z,100993.60
2022-07-29T20:06:11.935Z,100998.40
2022-07-29T20:08:39.893Z,100994.80
2022-07-29T20:11:07.087Z,100997.80
2022-07-29T20:13:35.349Z,101001.40
2022-07-29T20:16:08.299Z,101003.00
2022-07-29T20:18:35.201Z,101003.60
2022-07-29T20:21:03.870Z,101005.80
2022-07-29T20:23:33.495Z,101009.60
2022-07-29T20:26:00.714Z,101009.40
2022-07-29T20:28:27.705Z,101011.80
2022-07-29T20:30:54.556Z,101011.80
2022-07-29T20:33:21.522Z,101008.60
2022-07-29T20:35:48.266Z,101008.40
2022-07-29T20:38:18.149Z,101011.60
2022-07-29T20:40:45.980Z,101013.40
2022-07-29T20:43:12.844Z,101012.00
2022-07-29T20:45:39.925Z,101011.40
2022-07-29T20:48:08.274Z,101010.40
2022-07-29T20:50:35.393Z,101007.20
2022-07-29T20:53:02.162Z,101006.20
2022-07-29T20:55:29.352Z,101004.20
2022-07-29T20:57:56.169Z,101008.00
2022-07-29T21:00:23.191Z,101011.00
2022-07-29T21:02:50.061Z,101007.20
2022-07-29T21:05:17.197Z,101012.40
2022-07-29T21:07:44.225Z,101013.60
2022-07-29T21:10:11.698Z,101011.60
2022-07-29T21:12:38.523Z,101009.80
2022-07-29T21:15:06.698Z,101013.80
2022-07-29T21:17:36.224Z,101011.60
2022-07-29T21:20:06.799Z,101017.80
2022-07-29T21:22:33.844Z,101020.80
2022-07-29T21:25:00.938Z,101020.80
2022-07-29T21:27:46.249Z,101023.20
2022-07-29T21:30:13.160Z,101024.80
2022-07-29T21:32:39.967Z,101025.80
2022-07-29T21:35:15.198Z,101028.20
2022-07-29T21:37:54.773Z,101033.20
2022-07-29T21:40:21.740Z,101035.60
2022-07-29T21:42:48.471Z,101035.20
2022-07-29T21:45:16.609Z,101040.60
2022-07-29T21:47:43.395Z,101038.80
2022-07-29T21:50:10.232Z,101046.20
2022-07-29T21:52:37.355Z,101047.60
2022-07-29T21:55:04.942Z,101049.60
2022-07-29T21:57:32.049Z,101046.60
2022-07-29T22:00:02.621Z,101047.20
2022-07-29T22:02:39.396Z,101045.20
2022-07-29T22:05:06.606Z,101043.00
2022-07-29T22:07:55.600Z,101048.00
2022-07-29T22:10:20.882Z,101046.40
2022-07-29T22:12:52.199Z,101041.00
2022-07-29T22:15:19.804Z,101038.20
2022-07-29T22:17:47.045Z,101035.80
2022-07-29T22:20:14.279Z,101033.80
2022-07-29T22:22:41.950Z,101029.20
2022-07-29T22:25:10.654Z,101030.60
2022-07-29T22:27:38.736Z,101027.80
2022-07-29T22:30:08.171Z,101032.20
2022-07-29T22:32:35.104Z,101024.20
2022-07-29T22:35:01.985Z,101027.20
2022-07-29T22:37:29.074Z,101025.20
2022-07-29T22:39:56.558Z,101031.00
2022-07-29T22:42:23.624Z,101027.60
2022-07-29T22:44:50.363Z,101031.60
2022-07-29T22:47:17.425Z,101033.20
2022-07-29T22:49:44.216Z,101030.00
2022-07-29T22:52:10.950Z,101021.00
2022-07-29T22:54:38.473Z,101019.60
2022-07-29T22:57:06.259Z,101013.60
2022-07-29T22:59:33.055Z,101015.00
2022-07-29T23:01:59.996Z,101013.60
2022-07-29T23:04:26.907Z,101013.20
2022-07-29T23:06:53.743Z,101014.60
2022-07-29T23:09:20.785Z,101014.60
2022-07-29T23:11:47.563Z,101016.00
2022-07-29T23:14:14.264Z,101014.40
2022-07-29T23:16:41.086Z,101015.80
2022-07-29T23:19:08.720Z,101014.60
2022-07-29T23:21:35.502Z,101011.80
2022-07-29T23:24:02.257Z,101005.60
2022-07-29T23:26:29.129Z,101004.80
2022-07-29T23:28:56.054Z,101004.80
2022-07-29T23:31:22.890Z,101008.20
2022-07-29T23:33:49.705Z,101012.00
2022-07-29T23:36:16.914Z,101010.60
2022-07-29T23:38:44.308Z,101008.60
2022-07-29T23:41:11.140Z,101004.00
2022-07-29T23:43:38.248Z,101002.40
2022-07-29T23:46:05.106Z,101000.80
2022-07-29T23:48:33.388Z,100997.20
2022-07-29T23:51:01.223Z,100994.20
2022-07-29T23:53:28.697Z,100995.80
2022-07-29T23:55:56.683Z,100988.40
2022-07-29T23:58:23.609Z,100985.80
